Time;durP1;ratioP1;P1;durP2;ratioP2;P2;SDS_P1;SDS_P2;PMS_P1;PMS_P2;Temp;Humidity;BMP_temperature;BMP_pressure;BME280_temperature;BME280_humidity;BME280_pressure;Samples;Min_cycle;Max_cycle;Signal;HPM_P1;HPM_P2
2023/04/06 00:01:26;;;;;;;22.38;15.05;;;;;;;;;;5135640;27;20023;-73
2023/04/06 00:04:12;;;;;;;21.73;14.75;;;;;;;;;;5136357;27;20486;-74
2023/04/06 00:06:57;;;;;;;21.80;14.73;;;;;;;;;;5141464;27;20030;-73
2023/04/06 00:09:43;;;;;;;24.40;15.40;;;;;;;;;;5136992;27;20030;-73
2023/04/06 00:12:29;;;;;;;24.05;15.43;;;;;;;;;;5121300;27;20370;-73
2023/04/06 00:15:14;;;;;;;24.05;15.52;;;;;;;;;;5120831;27;20027;-73
2023/04/06 00:18:00;;;;;;;23.30;15.13;;;;;;;;;;5135040;27;20022;-73
2023/04/06 00:20:46;;;;;;;25.42;16.10;;;;;;;;;;5136135;27;20019;-73
2023/04/06 00:23:31;;;;;;;22.35;14.95;;;;;;;;;;5135890;27;20030;-72
2023/04/06 00:26:17;;;;;;;25.38;15.73;;;;;;;;;;5134377;27;20110;-74
2023/04/06 00:29:03;;;;;;;22.90;14.57;;;;;;;;;;5134963;27;20019;-73
2023/04/06 00:31:48;;;;;;;22.58;15.15;;;;;;;;;;5135766;27;20075;-74
2023/04/06 00:34:34;;;;;;;24.33;15.85;;;;;;;;;;5134572;27;20015;-73
2023/04/06 00:37:20;;;;;;;25.52;17.00;;;;;;;;;;5135401;27;20131;-74
2023/04/06 00:40:06;;;;;;;23.13;15.65;;;;;;;;;;5120555;27;20034;-74
2023/04/06 00:42:51;;;;;;;24.65;15.48;;;;;;;;;;5121166;27;20041;-74
2023/04/06 00:45:40;;;;;;;23.48;15.55;;;;;;;;;;5135272;27;20044;-74
2023/04/06 00:48:26;;;;;;;22.60;15.00;;;;;;;;;;5135279;27;20030;-73
2023/04/06 00:51:11;;;;;;;24.45;15.75;;;;;;;;;;5135290;27;20027;-74
2023/04/06 00:53:57;;;;;;;23.13;14.93;;;;;;;;;;5119710;27;20032;-74
2023/04/06 00:56:43;;;;;;;22.92;14.80;;;;;;;;;;5120041;27;20015;-73
2023/04/06 00:59:29;;;;;;;22.58;14.73;;;;;;;;;;5120383;27;20344;-74
2023/04/06 01:02:15;;;;;;;21.80;15.40;;;;;;;;;;5119456;27;20027;-74
2023/04/06 01:05:01;;;;;;;22.45;15.10;;;;;;;;;;5134622;27;20426;-73
2023/04/06 01:07:47;;;;;;;21.73;14.85;;;;;;;;;;5119342;27;20479;-73
2023/04/06 01:10:32;;;;;;;23.98;15.35;;;;;;;;;;5134118;27;20454;-72
2023/04/06 01:13:18;;;;;;;24.85;14.50;;;;;;;;;;5120398;27;20355;-74
2023/04/06 01:16:04;;;;;;;21.40;14.50;;;;;;;;;;5120326;27;20347;-72
2023/04/06 01:18:50;;;;;;;20.42;13.98;;;;;;;;;;5120662;27;20039;-73
2023/04/06 01:21:36;;;;;;;23.60;15.00;;;;;;;;;;5119667;27;20015;-72
2023/04/06 01:24:22;;;;;;;21.90;14.18;;;;;;;;;;5134818;27;20027;-72
2023/04/06 01:27:07;;;;;;;21.23;14.18;;;;;;;;;;5152558;27;20447;-73
2023/04/06 01:29:53;;;;;;;21.40;14.10;;;;;;;;;;5135400;27;20050;-73
2023/04/06 01:32:39;;;;;;;22.15;14.43;;;;;;;;;;5119487;28;20025;-73
2023/04/06 01:35:26;;;;;;;21.00;14.05;;;;;;;;;;5134163;28;20019;-73
2023/04/06 01:38:11;;;;;;;22.20;14.43;;;;;;;;;;5119241;28;20019;-73
2023/04/06 01:40:57;;;;;;;20.63;13.95;;;;;;;;;;5134789;28;20015;-72
2023/04/06 01:43:43;;;;;;;22.48;14.13;;;;;;;;;;5119183;28;20038;-73
2023/04/06 01:46:29;;;;;;;21.95;13.38;;;;;;;;;;5133810;28;20019;-74
2023/04/06 01:49:14;;;;;;;20.80;13.45;;;;;;;;;;5119722;28;20031;-72
2023/04/06 01:52:00;;;;;;;20.80;13.55;;;;;;;;;;5133533;28;20023;-73
2023/04/06 01:54:46;;;;;;;20.50;14.25;;;;;;;;;;5133716;28;20427;-74
2023/04/06 01:57:31;;;;;;;20.77;14.27;;;;;;;;;;5120079;28;20019;-73
2023/04/06 02:00:17;;;;;;;23.30;14.77;;;;;;;;;;5134992;28;20030;-73
2023/04/06 02:03:03;;;;;;;24.65;15.15;;;;;;;;;;5134279;28;20016;-72
2023/04/06 02:05:48;;;;;;;23.10;14.98;;;;;;;;;;5133606;28;20091;-72
2023/04/06 02:08:34;;;;;;;29.35;15.15;;;;;;;;;;5133824;28;20047;-72
2023/04/06 02:11:20;;;;;;;33.78;17.02;;;;;;;;;;5119416;28;20049;-71
2023/04/06 02:14:05;;;;;;;27.15;17.10;;;;;;;;;;5119761;28;20106;-72
2023/04/06 02:16:51;;;;;;;23.10;16.05;;;;;;;;;;5120328;28;20119;-72
2023/04/06 02:19:37;;;;;;;23.85;15.52;;;;;;;;;;5119448;28;20030;-73
2023/04/06 02:22:23;;;;;;;25.45;15.27;;;;;;;;;;5133885;28;20034;-72
2023/04/06 02:25:08;;;;;;;24.08;15.20;;;;;;;;;;5135293;28;20023;-72
2023/04/06 02:27:54;;;;;;;21.63;14.68;;;;;;;;;;5118722;28;20019;-73
2023/04/06 02:30:40;;;;;;;22.27;14.95;;;;;;;;;;5134184;28;20461;-73
2023/04/06 02:33:25;;;;;;;25.25;14.32;;;;;;;;;;5120297;28;20019;-73
2023/04/06 02:36:11;;;;;;;22.35;13.82;;;;;;;;;;5119595;28;20061;-73
2023/04/06 02:38:57;;;;;;;21.42;14.50;;;;;;;;;;5118902;28;20443;-73
2023/04/06 02:41:42;;;;;;;21.33;13.95;;;;;;;;;;5134096;28;20041;-73
2023/04/06 02:44:29;;;;;;;21.17;14.25;;;;;;;;;;5134766;27;20027;-73
2023/04/06 02:47:15;;;;;;;19.67;13.50;;;;;;;;;;5137201;27;20072;-73
2023/04/06 02:50:01;;;;;;;24.48;15.45;;;;;;;;;;5121960;27;20145;-72
2023/04/06 02:52:47;;;;;;;18.75;13.40;;;;;;;;;;5137721;27;20058;-73
2023/04/06 02:55:32;;;;;;;21.52;14.88;;;;;;;;;;5122719;27;20019;-73
2023/04/06 02:58:18;;;;;;;19.75;13.70;;;;;;;;;;5122276;27;20023;-74
2023/04/06 03:01:04;;;;;;;18.60;13.30;;;;;;;;;;5123091;27;20026;-73
2023/04/06 03:03:49;;;;;;;22.08;13.43;;;;;;;;;;5136762;27;20015;-74
2023/04/06 03:06:35;;;;;;;21.75;13.60;;;;;;;;;;5122066;27;20110;-73
2023/04/06 03:09:21;;;;;;;21.45;13.65;;;;;;;;;;5136844;27;20091;-73
2023/04/06 03:12:06;;;;;;;21.48;13.45;;;;;;;;;;5122054;27;20020;-73
2023/04/06 03:14:52;;;;;;;20.63;13.70;;;;;;;;;;5122129;27;20015;-73
2023/04/06 03:17:38;;;;;;;18.65;12.68;;;;;;;;;;5122496;27;20148;-73
2023/04/06 03:20:24;;;;;;;18.75;12.63;;;;;;;;;;5137170;27;20058;-73
2023/04/06 03:23:10;;;;;;;22.10;14.55;;;;;;;;;;5139316;27;20173;-73
2023/04/06 03:25:56;;;;;;;21.27;14.25;;;;;;;;;;5142512;27;20050;-73
2023/04/06 03:28:41;;;;;;;20.27;13.93;;;;;;;;;;5147704;27;20332;-75
2023/04/06 03:31:27;;;;;;;18.85;13.43;;;;;;;;;;5132784;27;20442;-72
2023/04/06 03:34:12;;;;;;;22.50;13.88;;;;;;;;;;5143217;27;20087;-73
2023/04/06 03:36:58;;;;;;;20.02;13.35;;;;;;;;;;5140631;27;20019;-74
2023/04/06 03:39:44;;;;;;;20.73;13.30;;;;;;;;;;5141886;27;20019;-73
2023/04/06 03:42:30;;;;;;;22.30;14.68;;;;;;;;;;5144488;27;20015;-71
2023/04/06 03:45:16;;;;;;;23.75;14.45;;;;;;;;;;5150275;27;20098;-72
2023/04/06 03:48:02;;;;;;;21.33;14.52;;;;;;;;;;5139808;27;20019;-73
2023/04/06 03:50:47;;;;;;;23.15;14.77;;;;;;;;;;5137046;27;20051;-73
2023/04/06 03:53:33;;;;;;;21.08;14.45;;;;;;;;;;5135665;27;20011;-73
2023/04/06 03:56:19;;;;;;;22.20;14.18;;;;;;;;;;5136131;27;20439;-74
2023/04/06 03:59:05;;;;;;;22.75;15.32;;;;;;;;;;5136783;27;20113;-74
2023/04/06 04:01:51;;;;;;;23.40;14.45;;;;;;;;;;5143029;27;20046;-73
2023/04/06 04:04:36;;;;;;;22.52;15.13;;;;;;;;;;5144926;27;20031;-74
2023/04/06 04:07:22;;;;;;;22.80;15.20;;;;;;;;;;5136539;27;20039;-73
2023/04/06 04:10:08;;;;;;;24.88;15.48;;;;;;;;;;5121406;27;20103;-73
2023/04/06 04:12:54;;;;;;;25.35;15.25;;;;;;;;;;5121737;27;20121;-74
2023/04/06 04:15:39;;;;;;;24.73;15.27;;;;;;;;;;5121284;27;20023;-71
2023/04/06 04:18:25;;;;;;;23.58;15.45;;;;;;;;;;5136181;27;20324;-72
2023/04/06 04:21:10;;;;;;;22.73;15.35;;;;;;;;;;5136535;27;20096;-73
2023/04/06 04:23:56;;;;;;;24.25;15.65;;;;;;;;;;5121708;27;20070;-74
2023/04/06 04:26:42;;;;;;;27.08;15.88;;;;;;;;;;5122739;27;20023;-73
2023/04/06 04:29:27;;;;;;;24.10;15.80;;;;;;;;;;5135172;27;20019;-74
2023/04/06 04:32:13;;;;;;;26.98;16.08;;;;;;;;;;5135330;27;20328;-72
2023/04/06 04:34:58;;;;;;;23.73;15.30;;;;;;;;;;5121613;27;20011;-73
2023/04/06 04:37:44;;;;;;;28.02;15.63;;;;;;;;;;5134956;27;20071;-73
2023/04/06 04:40:30;;;;;;;25.83;16.73;;;;;;;;;;5135530;27;20027;-72
2023/04/06 04:43:15;;;;;;;27.13;15.93;;;;;;;;;;5122085;27;20015;-72
2023/04/06 04:46:01;;;;;;;26.42;17.23;;;;;;;;;;5136744;27;20096;-74
2023/04/06 04:48:46;;;;;;;25.67;16.48;;;;;;;;;;5122565;27;20110;-73
2023/04/06 04:51:33;;;;;;;23.88;16.42;;;;;;;;;;5135986;27;20023;-73
2023/04/06 04:54:19;;;;;;;30.77;18.17;;;;;;;;;;5135456;27;20056;-74
2023/04/06 04:57:05;;;;;;;27.30;17.55;;;;;;;;;;5135933;27;20011;-73
2023/04/06 04:59:50;;;;;;;28.52;17.08;;;;;;;;;;5134851;27;20059;-72
2023/04/06 05:02:36;;;;;;;23.67;16.30;;;;;;;;;;5135107;27;20030;-72
2023/04/06 05:05:22;;;;;;;26.98;17.10;;;;;;;;;;5134774;27;20023;-73
2023/04/06 05:08:07;;;;;;;25.48;16.48;;;;;;;;;;5134401;27;20122;-73
2023/04/06 05:10:53;;;;;;;29.85;16.58;;;;;;;;;;5134539;27;20050;-73
2023/04/06 05:13:38;;;;;;;30.00;16.58;;;;;;;;;;5119581;27;20355;-72
2023/04/06 05:16:30;;;;;;;26.30;16.88;;;;;;;;;;5136462;27;20083;-75
2023/04/06 05:19:15;;;;;;;23.77;15.57;;;;;;;;;;5137970;27;20020;-73
2023/04/06 05:22:01;;;;;;;26.88;16.75;;;;;;;;;;5135364;27;20019;-72
2023/04/06 05:24:47;;;;;;;25.48;15.82;;;;;;;;;;5134906;27;20012;-73
2023/04/06 05:27:32;;;;;;;27.90;16.42;;;;;;;;;;5120988;27;20026;-74
2023/04/06 05:30:18;;;;;;;23.70;16.17;;;;;;;;;;5135945;28;20023;-72
2023/04/06 05:33:04;;;;;;;25.25;15.90;;;;;;;;;;5135057;28;20034;-72
2023/04/06 05:35:50;;;;;;;26.05;16.08;;;;;;;;;;5135835;28;20082;-73
2023/04/06 05:38:35;;;;;;;29.00;15.25;;;;;;;;;;5134699;28;20054;-72
2023/04/06 05:41:21;;;;;;;24.75;16.48;;;;;;;;;;5134698;28;20019;-72
2023/04/06 05:44:07;;;;;;;26.40;16.13;;;;;;;;;;5134562;28;20085;-73
2023/04/06 05:46:52;;;;;;;25.90;16.38;;;;;;;;;;5134811;28;20023;-73
2023/04/06 05:49:38;;;;;;;26.90;16.42;;;;;;;;;;5133889;28;20047;-73
2023/04/06 05:52:24;;;;;;;24.77;15.65;;;;;;;;;;5134456;28;20098;-73
2023/04/06 05:55:10;;;;;;;24.30;15.25;;;;;;;;;;5120756;28;20098;-73
2023/04/06 05:57:56;;;;;;;28.73;15.95;;;;;;;;;;5135570;28;20019;-73
2023/04/06 06:00:42;;;;;;;26.30;15.63;;;;;;;;;;5120455;28;20031;-74
2023/04/06 06:03:28;;;;;;;26.58;15.90;;;;;;;;;;5121602;28;20019;-73
2023/04/06 06:06:14;;;;;;;24.23;15.85;;;;;;;;;;5120198;28;20015;-74
2023/04/06 06:09:00;;;;;;;29.45;16.55;;;;;;;;;;5136840;28;20043;-72
2023/04/06 06:11:46;;;;;;;26.02;15.85;;;;;;;;;;5135477;28;20417;-72
2023/04/06 06:14:32;;;;;;;25.90;15.88;;;;;;;;;;5137070;28;20156;-73
2023/04/06 06:17:17;;;;;;;28.45;15.98;;;;;;;;;;5138531;28;20015;-72
2023/04/06 06:20:03;;;;;;;30.40;17.23;;;;;;;;;;5154287;27;20019;-73
2023/04/06 06:22:49;;;;;;;28.30;16.55;;;;;;;;;;5143137;27;20051;-74
2023/04/06 06:25:34;;;;;;;32.53;17.58;;;;;;;;;;5140282;27;20027;-72
2023/04/06 06:28:20;;;;;;;27.17;16.30;;;;;;;;;;5140345;27;20041;-73
2023/04/06 06:31:06;;;;;;;25.30;15.70;;;;;;;;;;5138726;27;20023;-73
2023/04/06 06:33:52;;;;;;;26.20;16.70;;;;;;;;;;5125591;27;20043;-74
2023/04/06 06:36:38;;;;;;;27.05;17.55;;;;;;;;;;5135409;27;20053;-73
2023/04/06 06:39:24;;;;;;;27.98;16.88;;;;;;;;;;5144662;27;20047;-74
2023/04/06 06:42:10;;;;;;;26.80;16.17;;;;;;;;;;5141779;27;20026;-72
2023/04/06 06:44:56;;;;;;;29.30;18.10;;;;;;;;;;5123131;27;20015;-73
2023/04/06 06:47:41;;;;;;;26.58;17.58;;;;;;;;;;5137976;27;20019;-72
2023/04/06 06:50:27;;;;;;;28.00;16.48;;;;;;;;;;5137921;27;20015;-73
2023/04/06 06:53:12;;;;;;;27.92;17.45;;;;;;;;;;5123016;27;20019;-73
2023/04/06 06:55:58;;;;;;;27.13;17.05;;;;;;;;;;5137557;27;20102;-73
2023/04/06 06:58:43;;;;;;;29.52;16.10;;;;;;;;;;5122729;27;20026;-73
2023/04/06 07:01:29;;;;;;;26.65;16.45;;;;;;;;;;5123312;27;20023;-72
2023/04/06 07:04:15;;;;;;;26.80;16.90;;;;;;;;;;5137197;27;20076;-73
2023/04/06 07:07:01;;;;;;;28.70;16.95;;;;;;;;;;5138415;27;20122;-73
2023/04/06 07:09:46;;;;;;;28.25;15.57;;;;;;;;;;5136941;27;20110;-73
2023/04/06 07:12:32;;;;;;;25.92;15.73;;;;;;;;;;5136699;27;20055;-72
2023/04/06 07:15:18;;;;;;;24.80;15.68;;;;;;;;;;5123928;27;20039;-72
2023/04/06 07:18:03;;;;;;;22.58;14.40;;;;;;;;;;5123377;27;20022;-73
2023/04/06 07:20:49;;;;;;;22.83;15.13;;;;;;;;;;5136762;27;20102;-72
2023/04/06 07:23:34;;;;;;;25.30;15.65;;;;;;;;;;5137505;27;20038;-74
2023/04/06 07:26:20;;;;;;;22.02;14.90;;;;;;;;;;5122751;27;20019;-72
2023/04/06 07:29:06;;;;;;;23.40;14.40;;;;;;;;;;5123217;27;20016;-74
2023/04/06 07:31:51;;;;;;;22.83;14.90;;;;;;;;;;5137832;27;20027;-73
2023/04/06 07:34:37;;;;;;;27.55;15.85;;;;;;;;;;5123830;27;20308;-74
2023/04/06 07:37:23;;;;;;;23.65;15.73;;;;;;;;;;5138233;27;20018;-75
2023/04/06 07:40:09;;;;;;;25.83;15.23;;;;;;;;;;5124129;27;20359;-74
2023/04/06 07:42:54;;;;;;;24.35;15.52;;;;;;;;;;5138503;27;20153;-74
2023/04/06 07:45:40;;;;;;;24.02;15.20;;;;;;;;;;5138042;27;20035;-73
2023/04/06 07:48:26;;;;;;;26.92;15.50;;;;;;;;;;5136994;27;20160;-74
2023/04/06 07:51:14;;;;;;;22.60;14.98;;;;;;;;;;5136671;27;20011;-74
2023/04/06 07:53:59;;;;;;;24.27;14.60;;;;;;;;;;5121515;27;20162;-73
2023/04/06 07:56:45;;;;;;;22.15;14.30;;;;;;;;;;5123492;27;20029;-74
2023/04/06 07:59:30;;;;;;;22.67;14.23;;;;;;;;;;5122349;27;20030;-73
2023/04/06 08:02:16;;;;;;;20.00;13.98;;;;;;;;;;5138787;27;20431;-74
2023/04/06 08:05:02;;;;;;;24.77;15.82;;;;;;;;;;5124869;27;20042;-73
2023/04/06 08:07:47;;;;;;;21.67;14.98;;;;;;;;;;5138123;27;20569;-75
2023/04/06 08:10:34;;;;;;;23.88;14.52;;;;;;;;;;5138072;27;20048;-73
2023/04/06 08:13:20;;;;;;;24.80;15.30;;;;;;;;;;5137650;27;20019;-74
2023/04/06 08:16:05;;;;;;;26.25;15.02;;;;;;;;;;5122542;27;20011;-75
2023/04/06 08:18:52;;;;;;;22.98;15.07;;;;;;;;;;5138504;27;20027;-76
2023/04/06 08:21:37;;;;;;;23.48;14.07;;;;;;;;;;5122147;27;20023;-72
2023/04/06 08:24:23;;;;;;;22.38;14.52;;;;;;;;;;5122941;27;20034;-74
2023/04/06 08:27:09;;;;;;;26.65;14.93;;;;;;;;;;5122390;27;20038;-74
2023/04/06 08:29:54;;;;;;;22.38;15.02;;;;;;;;;;5137470;27;20060;-73
2023/04/06 08:32:41;;;;;;;23.77;14.88;;;;;;;;;;5136817;27;20019;-74
2023/04/06 08:35:29;;;;;;;22.60;14.30;;;;;;;;;;5123340;27;20015;-74
2023/04/06 08:38:15;;;;;;;22.38;15.18;;;;;;;;;;5136548;27;20015;-74
2023/04/06 08:41:06;;;;;;;37.20;16.10;;;;;;;;;;5123298;27;20083;-74
2023/04/06 08:43:59;;;;;;;24.13;14.93;;;;;;;;;;5121637;27;20094;-74
2023/04/06 08:46:44;;;;;;;21.30;14.18;;;;;;;;;;5137723;27;20031;-73
2023/04/06 08:49:31;;;;;;;27.27;15.40;;;;;;;;;;5139087;27;20057;-74
2023/04/06 08:52:18;;;;;;;21.30;14.05;;;;;;;;;;5147057;27;20025;-75
2023/04/06 08:55:03;;;;;;;21.58;14.63;;;;;;;;;;5120636;27;20019;-72
2023/04/06 08:57:50;;;;;;;23.25;14.68;;;;;;;;;;5120631;27;20011;-72
2023/04/06 09:00:37;;;;;;;22.13;14.90;;;;;;;;;;5135402;27;20039;-74
2023/04/06 09:03:23;;;;;;;23.02;15.23;;;;;;;;;;5134711;27;20411;-73
2023/04/06 09:06:09;;;;;;;23.42;14.45;;;;;;;;;;5135955;27;20019;-73
2023/04/06 09:08:55;;;;;;;21.70;14.68;;;;;;;;;;5124136;27;20058;-72
2023/04/06 09:11:42;;;;;;;19.85;14.02;;;;;;;;;;5141739;27;20047;-74
2023/04/06 09:14:35;;;;;;;22.77;15.48;;;;;;;;;;5135379;27;20446;-73
2023/04/06 09:17:32;;;;;;;23.55;14.65;;;;;;;;;;5120578;27;20434;-72
2023/04/06 09:20:22;;;;;;;21.55;15.15;;;;;;;;;;5134537;27;20334;-73
2023/04/06 09:23:17;;;;;;;23.95;15.60;;;;;;;;;;5120378;27;20363;-73
2023/04/06 09:26:08;;;;;;;23.63;15.00;;;;;;;;;;5135546;27;20043;-73
2023/04/06 09:28:54;;;;;;;23.90;14.75;;;;;;;;;;5134393;27;20019;-73
2023/04/06 09:31:40;;;;;;;20.67;14.52;;;;;;;;;;5134858;27;20031;-71
2023/04/06 09:34:26;;;;;;;25.85;15.68;;;;;;;;;;5121180;28;20090;-71
2023/04/06 09:37:12;;;;;;;21.52;14.52;;;;;;;;;;5138765;28;20088;-72
2023/04/06 09:40:05;;;;;;;21.60;14.38;;;;;;;;;;5120567;28;20026;-73
2023/04/06 09:42:52;;;;;;;22.02;15.27;;;;;;;;;;5134801;28;20035;-71
2023/04/06 09:45:38;;;;;;;25.85;14.63;;;;;;;;;;5120561;28;20038;-72
2023/04/06 09:48:24;;;;;;;21.05;14.32;;;;;;;;;;5134431;28;20363;-74
2023/04/06 09:51:13;;;;;;;25.70;15.73;;;;;;;;;;5133845;28;20027;-74
2023/04/06 09:54:02;;;;;;;18.80;14.10;;;;;;;;;;5135727;27;20011;-73
2023/04/06 09:56:57;;;;;;;21.75;14.10;;;;;;;;;;5138840;27;20034;-74
2023/04/06 09:59:53;;;;;;;20.17;14.73;;;;;;;;;;5138822;27;20112;-73
2023/04/06 10:02:39;;;;;;;19.65;13.40;;;;;;;;;;5138732;27;20340;-73
2023/04/06 10:05:25;;;;;;;26.35;14.55;;;;;;;;;;5124067;27;20034;-74
2023/04/06 10:08:11;;;;;;;22.50;14.57;;;;;;;;;;5138912;27;20051;-74
2023/04/06 10:10:57;;;;;;;21.02;14.48;;;;;;;;;;5123880;27;20035;-74
2023/04/06 10:13:44;;;;;;;21.40;14.50;;;;;;;;;;5123758;27;20363;-73
2023/04/06 10:16:30;;;;;;;19.92;13.38;;;;;;;;;;5123138;27;20110;-74
2023/04/06 10:19:22;;;;;;;21.35;14.23;;;;;;;;;;5138138;27;20110;-72
2023/04/06 10:22:10;;;;;;;20.92;13.60;;;;;;;;;;5139536;27;20038;-73
2023/04/06 10:24:56;;;;;;;22.80;14.80;;;;;;;;;;5138199;27;20346;-73
2023/04/06 10:27:41;;;;;;;19.27;13.40;;;;;;;;;;5137789;27;20359;-73
2023/04/06 10:30:28;;;;;;;22.20;13.88;;;;;;;;;;5136569;27;20026;-73
2023/04/06 10:33:17;;;;;;;19.83;13.40;;;;;;;;;;5135237;27;20026;-73
2023/04/06 10:36:13;;;;;;;23.17;14.57;;;;;;;;;;5121414;27;20027;-73
2023/04/06 10:38:59;;;;;;;17.20;13.25;;;;;;;;;;5120921;27;20443;-74
2023/04/06 10:41:47;;;;;;;24.80;13.35;;;;;;;;;;5137773;27;20076;-74
2023/04/06 10:44:42;;;;;;;18.10;13.10;;;;;;;;;;5136911;27;20031;-73
2023/04/06 10:47:27;;;;;;;20.20;13.73;;;;;;;;;;5121237;27;20064;-74
2023/04/06 10:50:15;;;;;;;20.33;13.13;;;;;;;;;;5121257;27;20033;-73
2023/04/06 10:53:01;;;;;;;19.45;12.30;;;;;;;;;;5120805;27;20095;-74
2023/04/06 10:55:47;;;;;;;17.95;12.80;;;;;;;;;;5119816;27;20022;-73
2023/04/06 10:58:33;;;;;;;19.58;12.82;;;;;;;;;;5134873;27;20091;-73
2023/04/06 11:01:19;;;;;;;20.38;13.57;;;;;;;;;;5121869;27;20164;-73
2023/04/06 11:04:07;;;;;;;18.80;13.35;;;;;;;;;;5122051;27;20020;-74
2023/04/06 11:06:54;;;;;;;19.35;12.63;;;;;;;;;;5136170;27;20050;-73
2023/04/06 11:09:41;;;;;;;20.77;13.40;;;;;;;;;;5123700;27;20130;-73
2023/04/06 11:12:27;;;;;;;21.42;12.82;;;;;;;;;;5138753;27;20047;-74
2023/04/06 11:15:13;;;;;;;17.90;12.23;;;;;;;;;;5137007;27;20094;-74
2023/04/06 11:18:03;;;;;;;22.13;13.65;;;;;;;;;;5122297;27;20110;-71
2023/04/06 11:20:48;;;;;;;18.38;12.82;;;;;;;;;;5122241;27;20041;-72
2023/04/06 11:23:34;;;;;;;21.80;14.07;;;;;;;;;;5146033;27;20015;-73
2023/04/06 11:26:20;;;;;;;23.27;14.65;;;;;;;;;;5144603;27;20034;-74
2023/04/06 11:29:06;;;;;;;17.77;11.93;;;;;;;;;;5122518;27;20019;-73
2023/04/06 11:31:52;;;;;;;17.65;12.57;;;;;;;;;;5137324;27;20449;-73
2023/04/06 11:34:40;;;;;;;18.25;12.10;;;;;;;;;;5136648;27;20026;-74
2023/04/06 11:37:26;;;;;;;18.17;12.73;;;;;;;;;;5138366;27;20026;-73
2023/04/06 11:40:12;;;;;;;16.40;11.93;;;;;;;;;;5143471;27;20019;-73
2023/04/06 11:42:57;;;;;;;19.08;12.18;;;;;;;;;;5139479;27;20023;-73
2023/04/06 11:45:43;;;;;;;17.10;11.38;;;;;;;;;;5136386;27;20083;-73
2023/04/06 11:48:29;;;;;;;17.60;12.02;;;;;;;;;;5122686;27;20027;-73
2023/04/06 11:51:22;;;;;;;17.58;11.05;;;;;;;;;;5135936;27;20065;-73
2023/04/06 11:54:13;;;;;;;19.75;11.05;;;;;;;;;;5136393;27;20068;-75
2023/04/06 11:57:00;;;;;;;16.10;10.93;;;;;;;;;;5136981;27;20015;-73
2023/04/06 11:59:46;;;;;;;18.42;11.02;;;;;;;;;;5120872;27;20026;-72
2023/04/06 12:02:32;;;;;;;14.90;10.85;;;;;;;;;;5137460;27;20041;-73
2023/04/06 12:05:17;;;;;;;14.43;11.05;;;;;;;;;;5136162;27;20019;-72
2023/04/06 12:08:03;;;;;;;15.23;10.80;;;;;;;;;;5109347;28;20373;-73
2023/04/06 12:10:49;;;;;;;17.60;11.38;;;;;;;;;;5100188;28;20088;-74
2023/04/06 12:13:34;;;;;;;15.10;10.82;;;;;;;;;;5101249;28;20062;-73
2023/04/06 12:16:20;;;;;;;13.55;10.15;;;;;;;;;;5114382;28;20363;-73
2023/04/06 12:19:06;;;;;;;15.10;11.07;;;;;;;;;;5114156;28;20027;-74
2023/04/06 12:21:53;;;;;;;15.02;10.77;;;;;;;;;;5114383;28;20042;-73
2023/04/06 12:24:38;;;;;;;18.88;10.65;;;;;;;;;;5116012;28;20019;-73
2023/04/06 12:27:24;;;;;;;16.63;11.10;;;;;;;;;;5114687;28;20051;-73
2023/04/06 12:30:10;;;;;;;17.38;11.18;;;;;;;;;;5120018;27;20031;-73
2023/04/06 12:32:56;;;;;;;18.13;10.82;;;;;;;;;;5119427;27;20023;-74
2023/04/06 12:35:42;;;;;;;17.80;10.35;;;;;;;;;;5101153;28;20099;-72
2023/04/06 12:38:27;;;;;;;16.20;10.98;;;;;;;;;;5099939;28;20022;-73
2023/04/06 12:41:15;;;;;;;20.33;11.07;;;;;;;;;;5100172;28;20028;-72
2023/04/06 12:44:04;;;;;;;16.40;11.32;;;;;;;;;;5114384;28;20023;-71
2023/04/06 12:46:56;;;;;;;15.73;11.27;;;;;;;;;;5115610;28;20024;-71
2023/04/06 12:49:42;;;;;;;16.50;10.85;;;;;;;;;;5113419;28;20111;-71
2023/04/06 12:52:30;;;;;;;19.33;10.30;;;;;;;;;;5113503;28;20077;-70
2023/04/06 12:55:16;;;;;;;13.77;9.38;;;;;;;;;;5113287;28;20356;-72
2023/04/06 12:58:02;;;;;;;14.38;9.93;;;;;;;;;;5115360;28;20459;-70
2023/04/06 13:00:48;;;;;;;21.27;10.18;;;;;;;;;;5099704;28;20027;-70
2023/04/06 13:03:34;;;;;;;14.35;10.13;;;;;;;;;;5114714;28;20075;-69
2023/04/06 13:06:20;;;;;;;14.77;9.75;;;;;;;;;;5114470;28;20059;-71
2023/04/06 13:09:07;;;;;;;14.68;9.45;;;;;;;;;;5115836;28;20131;-70
2023/04/06 13:11:53;;;;;;;15.20;9.65;;;;;;;;;;5114068;28;20027;-71
2023/04/06 13:14:39;;;;;;;11.90;9.55;;;;;;;;;;5114106;28;20328;-71
2023/04/06 13:17:26;;;;;;;14.93;9.30;;;;;;;;;;5100011;28;20020;-72
2023/04/06 13:20:12;;;;;;;12.85;8.73;;;;;;;;;;5114495;28;20084;-71
2023/04/06 13:22:57;;;;;;;12.77;8.52;;;;;;;;;;5099649;28;20110;-71
2023/04/06 13:25:43;;;;;;;15.10;8.10;;;;;;;;;;5114575;28;20412;-71
2023/04/06 13:28:29;;;;;;;12.57;8.30;;;;;;;;;;5113704;28;20020;-69
2023/04/06 13:31:15;;;;;;;14.60;8.40;;;;;;;;;;5098882;28;20023;-69
2023/04/06 13:34:01;;;;;;;12.77;8.77;;;;;;;;;;5114002;28;20024;-71
2023/04/06 13:36:47;;;;;;;16.05;8.80;;;;;;;;;;5115377;28;20015;-71
2023/04/06 13:39:33;;;;;;;10.65;8.40;;;;;;;;;;5114525;28;20058;-71
2023/04/06 13:42:18;;;;;;;14.30;7.85;;;;;;;;;;5099418;28;20451;-71
2023/04/06 13:45:04;;;;;;;12.07;7.70;;;;;;;;;;5114496;28;20031;-70
2023/04/06 13:47:50;;;;;;;10.02;7.70;;;;;;;;;;5099497;28;20034;-71
2023/04/06 13:50:36;;;;;;;12.30;7.90;;;;;;;;;;5113924;28;20409;-70
2023/04/06 13:53:22;;;;;;;12.80;7.32;;;;;;;;;;5099306;28;20031;-70
2023/04/06 13:56:08;;;;;;;11.70;7.28;;;;;;;;;;5113979;28;20099;-69
2023/04/06 13:58:55;;;;;;;14.35;7.55;;;;;;;;;;5113875;28;20102;-71
2023/04/06 14:01:41;;;;;;;10.80;6.82;;;;;;;;;;5099447;28;20027;-70
2023/04/06 14:04:26;;;;;;;12.70;6.85;;;;;;;;;;5099168;28;20035;-70
2023/04/06 14:07:12;;;;;;;10.35;6.45;;;;;;;;;;5119274;28;20043;-69
2023/04/06 14:09:57;;;;;;;10.07;6.35;;;;;;;;;;5133391;28;20484;-71
2023/04/06 14:12:46;;;;;;;10.13;7.28;;;;;;;;;;5134501;28;20030;-71
2023/04/06 14:15:32;;;;;;;12.77;7.53;;;;;;;;;;5134101;28;20107;-70
2023/04/06 14:18:17;;;;;;;9.85;6.95;;;;;;;;;;5133449;28;20011;-70
2023/04/06 14:21:03;;;;;;;10.30;7.00;;;;;;;;;;5133076;28;20102;-70
2023/04/06 14:23:49;;;;;;;12.63;7.10;;;;;;;;;;5114237;28;20485;-69
2023/04/06 14:26:35;;;;;;;13.82;6.88;;;;;;;;;;5114113;28;20046;-69
2023/04/06 14:29:21;;;;;;;10.95;6.55;;;;;;;;;;5112790;28;20023;-70
2023/04/06 14:32:07;;;;;;;13.93;7.20;;;;;;;;;;5100582;28;20034;-70
2023/04/06 14:34:52;;;;;;;13.07;6.95;;;;;;;;;;5112884;28;20084;-70
2023/04/06 14:37:38;;;;;;;11.68;7.00;;;;;;;;;;5098468;28;20027;-69
2023/04/06 14:40:24;;;;;;;11.20;7.20;;;;;;;;;;5100149;28;20047;-70
2023/04/06 14:43:10;;;;;;;15.60;7.22;;;;;;;;;;5116454;28;20023;-70
2023/04/06 14:45:59;;;;;;;11.07;7.20;;;;;;;;;;5118146;28;20023;-69
2023/04/06 14:48:45;;;;;;;13.13;7.20;;;;;;;;;;5116732;28;20381;-70
2023/04/06 14:51:30;;;;;;;12.93;7.05;;;;;;;;;;5117163;28;20028;-69
2023/04/06 14:54:16;;;;;;;12.18;7.10;;;;;;;;;;5116647;28;20130;-69
2023/04/06 14:57:02;;;;;;;14.02;6.75;;;;;;;;;;5103752;28;20034;-70
2023/04/06 14:59:47;;;;;;;10.25;6.22;;;;;;;;;;5117708;28;20015;-69
2023/04/06 15:02:33;;;;;;;9.13;6.45;;;;;;;;;;5117057;28;20023;-69
2023/04/06 15:05:18;;;;;;;14.18;6.50;;;;;;;;;;5119343;28;20020;-70
2023/04/06 15:08:04;;;;;;;9.95;6.70;;;;;;;;;;5116062;28;20061;-70
2023/04/06 15:10:50;;;;;;;10.52;6.40;;;;;;;;;;5102470;28;20110;-69
2023/04/06 15:13:36;;;;;;;11.77;6.95;;;;;;;;;;5115865;28;20029;-69
2023/04/06 15:16:22;;;;;;;9.43;6.03;;;;;;;;;;5116994;28;20026;-70
2023/04/06 15:19:09;;;;;;;10.13;6.20;;;;;;;;;;5103207;28;20068;-69
2023/04/06 15:21:55;;;;;;;13.15;6.70;;;;;;;;;;5102550;28;20028;-70
2023/04/06 15:24:40;;;;;;;11.05;7.13;;;;;;;;;;5126354;27;20435;-68
2023/04/06 15:27:26;;;;;;;9.50;6.53;;;;;;;;;;5136408;27;20023;-69
2023/04/06 15:30:12;;;;;;;12.40;7.70;;;;;;;;;;5136315;27;20062;-67
2023/04/06 15:33:00;;;;;;;16.80;6.63;;;;;;;;;;5136128;27;20392;-68
2023/04/06 15:35:46;;;;;;;10.32;7.15;;;;;;;;;;5122778;27;20023;-69
2023/04/06 15:38:32;;;;;;;18.00;7.70;;;;;;;;;;5136801;27;20022;-68
2023/04/06 15:41:18;;;;;;;12.18;7.43;;;;;;;;;;5120921;27;20022;-69
2023/04/06 15:44:03;;;;;;;17.02;7.68;;;;;;;;;;5121438;27;20392;-69
2023/04/06 15:46:50;;;;;;;13.10;7.00;;;;;;;;;;5123190;27;20023;-71
2023/04/06 15:49:36;;;;;;;12.10;7.18;;;;;;;;;;5136586;27;20023;-69
2023/04/06 15:52:22;;;;;;;11.63;6.95;;;;;;;;;;5135496;27;20468;-69
2023/04/06 15:55:08;;;;;;;11.43;7.53;;;;;;;;;;5135907;27;20038;-69
2023/04/06 15:57:54;;;;;;;12.30;7.45;;;;;;;;;;5136875;27;20098;-69
2023/04/06 16:00:39;;;;;;;9.45;6.78;;;;;;;;;;5136598;27;20027;-69
2023/04/06 16:03:25;;;;;;;12.20;7.63;;;;;;;;;;5135294;27;20020;-69
2023/04/06 16:06:11;;;;;;;12.32;7.38;;;;;;;;;;5120655;27;20359;-69
2023/04/06 16:08:56;;;;;;;14.18;6.90;;;;;;;;;;5135351;27;20528;-70